createdAt,value
2022-10-25T00:00:20.497Z,2.40
2022-10-25T00:02:48.050Z,2.03
2022-10-25T00:05:16.345Z,2.00
2022-10-25T00:07:43.889Z,1.70
2022-10-25T00:10:11.527Z,2.03
2022-10-25T00:12:45.702Z,1.53
2022-10-25T00:15:14.190Z,2.13
2022-10-25T00:17:42.409Z,2.00
2022-10-25T00:20:10.559Z,2.00
2022-10-25T00:22:38.335Z,1.57
2022-10-25T00:25:06.816Z,2.20
2022-10-25T00:27:34.774Z,2.00
2022-10-25T00:30:02.415Z,2.00
2022-10-25T00:32:29.852Z,1.77
2022-10-25T00:34:57.388Z,1.90
2022-10-25T00:37:24.847Z,2.10
2022-10-25T00:39:52.337Z,1.70
2022-10-25T00:42:24.342Z,1.70
2022-10-25T00:44:53.599Z,1.90
2022-10-25T00:47:21.051Z,1.83
2022-10-25T00:50:07.378Z,2.10
2022-10-25T00:52:36.454Z,2.17
2022-10-25T00:55:05.757Z,1.90
2022-10-25T00:57:35.337Z,2.17
2022-10-25T01:00:03.514Z,1.90
2022-10-25T01:02:31.164Z,2.10
2022-10-25T01:04:59.012Z,1.57
2022-10-25T01:07:26.445Z,2.10
2022-10-25T01:09:54.589Z,2.10
2022-10-25T01:12:22.023Z,2.17
2022-10-25T01:14:50.277Z,1.77
2022-10-25T01:17:20.452Z,1.80
2022-10-25T01:20:03.109Z,1.97
2022-10-25T01:22:33.870Z,2.03
2022-10-25T01:25:07.552Z,1.47
2022-10-25T01:27:53.865Z,1.40
2022-10-25T01:30:25.642Z,1.53
2022-10-25T01:32:58.958Z,1.60
2022-10-25T01:35:28.358Z,1.60
2022-10-25T01:38:14.651Z,1.40
2022-10-25T01:40:54.362Z,1.77
2022-10-25T01:43:21.874Z,1.87
2022-10-25T01:46:05.886Z,1.53
2022-10-25T01:48:37.498Z,1.67
2022-10-25T01:51:06.243Z,1.90
2022-10-25T01:53:33.681Z,1.50
2022-10-25T01:56:03.545Z,1.57
2022-10-25T01:58:41.298Z,1.90
2022-10-25T02:01:27.541Z,2.13
2022-10-25T02:03:59.050Z,1.90
2022-10-25T02:06:32.457Z,2.10
2022-10-25T02:09:02.913Z,1.87
2022-10-25T02:11:31.990Z,2.00
2022-10-25T02:14:11.353Z,2.20
2022-10-25T02:16:41.154Z,2.17
2022-10-25T02:19:10.364Z,2.20
2022-10-25T02:21:37.943Z,3.47
2022-10-25T02:24:13.921Z,2.07
2022-10-25T02:26:42.248Z,2.03
2022-10-25T02:29:11.398Z,2.00
2022-10-25T02:31:39.273Z,1.93
2022-10-25T02:34:06.747Z,2.33
2022-10-25T02:36:34.185Z,1.90
2022-10-25T02:45:36.362Z,1.70
2022-10-25T02:48:04.024Z,2.00
2022-10-25T02:50:31.448Z,1.70
2022-10-25T02:52:58.934Z,2.20
2022-10-25T02:55:26.377Z,2.07
2022-10-25T02:57:53.825Z,1.33
2022-10-25T03:00:21.312Z,1.97
2022-10-25T03:02:48.993Z,1.97
2022-10-25T03:05:16.594Z,2.30
2022-10-25T03:07:44.118Z,2.30
2022-10-25T03:10:11.581Z,2.00
2022-10-25T03:12:39.080Z,1.90
2022-10-25T03:15:06.876Z,2.00
2022-10-25T03:17:34.327Z,1.77
2022-10-25T03:20:01.768Z,1.60
2022-10-25T03:22:29.249Z,1.93
2022-10-25T03:24:56.694Z,1.60
2022-10-25T03:27:24.152Z,1.50
2022-10-25T03:29:51.570Z,1.73
2022-10-25T03:32:19.012Z,2.30
2022-10-25T03:34:46.431Z,1.60
2022-10-25T03:37:13.866Z,2.13
2022-10-25T03:39:41.300Z,1.90
2022-10-25T03:42:08.767Z,1.90
2022-10-25T03:44:36.184Z,2.07
2022-10-25T03:47:03.633Z,2.13
2022-10-25T03:49:31.113Z,2.13
2022-10-25T03:52:01.224Z,2.50
2022-10-25T03:54:31.586Z,2.17
2022-10-25T03:56:59.238Z,2.10
2022-10-25T03:59:26.685Z,2.20
2022-10-25T04:01:54.289Z,1.63
2022-10-25T04:04:22.044Z,1.93
2022-10-25T04:06:49.452Z,2.40
2022-10-25T04:09:17.539Z,1.60
2022-10-25T04:11:44.979Z,2.10
2022-10-25T04:14:12.409Z,2.07
2022-10-25T04:16:40.075Z,1.90
2022-10-25T04:19:07.464Z,1.97
2022-10-25T04:21:34.881Z,1.90
2022-10-25T04:24:04.347Z,2.13
2022-10-25T04:26:32.202Z,1.67
2022-10-25T04:28:59.632Z,2.67
2022-10-25T04:31:27.164Z,2.03
2022-10-25T04:33:55.426Z,1.90
2022-10-25T04:36:23.328Z,2.27
2022-10-25T04:38:51.617Z,2.10
2022-10-25T04:41:19.791Z,1.97
2022-10-25T04:43:47.606Z,2.00
2022-10-25T04:46:15.651Z,2.07
2022-10-25T04:48:43.558Z,1.87
2022-10-25T04:51:11.870Z,2.00
2022-10-25T04:53:39.419Z,2.20
2022-10-25T04:56:14.146Z,1.80
2022-10-25T04:58:41.958Z,2.27
2022-10-25T05:01:11.038Z,2.00
2022-10-25T05:03:38.549Z,2.20
2022-10-25T05:06:17.175Z,2.20
2022-10-25T05:08:46.262Z,2.00
2022-10-25T05:11:14.423Z,1.97
2022-10-25T05:13:42.477Z,2.30
2022-10-25T05:16:12.897Z,2.67
2022-10-25T05:18:40.738Z,2.00
2022-10-25T05:21:08.183Z,2.00
2022-10-25T05:23:35.642Z,2.20
2022-10-25T05:26:03.998Z,2.50
2022-10-25T05:28:31.553Z,2.37
2022-10-25T05:30:59.074Z,2.10
2022-10-25T05:33:26.505Z,2.20
2022-10-25T05:35:54.015Z,1.97
2022-10-25T05:38:21.489Z,3.10
2022-10-25T05:40:55.727Z,2.57
2022-10-25T05:43:23.537Z,2.47
2022-10-25T05:45:51.379Z,2.40
2022-10-25T05:48:19.301Z,2.80
2022-10-25T05:50:46.711Z,2.10
2022-10-25T05:53:14.137Z,2.30
2022-10-25T05:55:41.587Z,2.90
2022-10-25T05:58:09.560Z,2.60
2022-10-25T06:03:09.390Z,2.30
2022-10-25T06:05:36.809Z,2.13
2022-10-25T06:08:04.305Z,2.73
2022-10-25T06:10:31.779Z,2.63
2022-10-25T06:12:59.219Z,2.40
2022-10-25T06:15:26.660Z,2.57
2022-10-25T06:17:54.102Z,2.40
2022-10-25T06:20:21.564Z,2.33
2022-10-25T06:22:49.205Z,2.70
2022-10-25T06:25:16.818Z,2.70
2022-10-25T06:27:44.281Z,2.97
2022-10-25T06:30:11.902Z,3.43
2022-10-25T06:32:39.390Z,2.80
2022-10-25T06:35:07.057Z,3.53
2022-10-25T06:37:35.325Z,2.80
2022-10-25T06:40:02.745Z,3.20
2022-10-25T06:42:30.228Z,3.07
2022-10-25T06:44:57.647Z,2.97
2022-10-25T06:47:25.129Z,3.33
2022-10-25T06:49:52.554Z,3.00
2022-10-25T06:52:20.032Z,3.00
2022-10-25T06:54:47.468Z,2.70
2022-10-25T06:57:14.981Z,3.20
2022-10-25T06:59:42.431Z,3.53
2022-10-25T07:02:10.117Z,3.00
2022-10-25T07:04:37.677Z,2.60
2022-10-25T07:07:05.218Z,3.03
2022-10-25T07:09:32.632Z,3.37
2022-10-25T07:12:00.150Z,3.30
2022-10-25T07:14:27.605Z,3.50
2022-10-25T07:16:55.360Z,3.17
2022-10-25T07:19:22.958Z,3.10
2022-10-25T07:21:50.971Z,2.70
2022-10-25T07:24:18.510Z,4.03
2022-10-25T07:26:46.022Z,2.90
2022-10-25T07:29:13.467Z,2.90
2022-10-25T07:31:41.924Z,3.10
2022-10-25T07:34:11.527Z,3.40
2022-10-25T07:36:38.994Z,2.80
2022-10-25T07:39:06.481Z,2.67
2022-10-25T07:41:34.305Z,3.10
2022-10-25T07:44:01.860Z,2.70
2022-10-25T07:46:29.328Z,3.00
2022-10-25T07:48:56.930Z,3.10
2022-10-25T07:51:24.457Z,2.53
2022-10-25T07:53:53.242Z,2.70
2022-10-25T07:56:23.524Z,2.50
2022-10-25T07:58:51.960Z,2.60
2022-10-25T08:01:21.085Z,2.77
2022-10-25T08:03:48.616Z,2.57
2022-10-25T08:06:16.119Z,2.70
2022-10-25T08:08:43.818Z,2.60
2022-10-25T08:11:11.322Z,2.63
2022-10-25T08:13:39.187Z,2.53
2022-10-25T08:16:07.147Z,3.27
2022-10-25T08:18:35.370Z,2.40
2022-10-25T08:21:04.038Z,2.40
2022-10-25T08:23:32.378Z,2.53
2022-10-25T08:26:00.230Z,2.60
2022-10-25T08:28:28.597Z,2.53
2022-10-25T08:30:56.208Z,2.17
2022-10-25T08:33:24.145Z,2.30
2022-10-25T08:35:51.555Z,2.23
2022-10-25T08:38:19.053Z,2.03
2022-10-25T08:40:50.006Z,1.57
2022-10-25T08:43:37.693Z,2.10
2022-10-25T08:46:13.977Z,1.83
2022-10-25T08:48:44.094Z,1.97
2022-10-25T08:51:30.471Z,1.97
2022-10-25T08:54:00.971Z,1.60
2022-10-25T08:56:29.380Z,2.13
2022-10-25T08:58:57.976Z,1.90
2022-10-25T09:01:41.422Z,2.03
2022-10-25T09:04:09.422Z,1.60
2022-10-25T09:06:41.963Z,1.90
2022-10-25T09:09:27.871Z,1.53
2022-10-25T09:12:13.842Z,1.80
2022-10-25T09:15:00.022Z,1.90
2022-10-25T09:17:48.076Z,1.77
2022-10-25T09:20:24.314Z,2.37
2022-10-25T09:22:57.950Z,1.63
2022-10-25T09:25:54.726Z,1.80
2022-10-25T09:28:25.397Z,1.73
2022-10-25T09:30:53.921Z,1.73
2022-10-25T09:33:23.602Z,1.73
2022-10-25T09:35:53.671Z,1.63
2022-10-25T09:38:24.407Z,2.07
2022-10-25T09:40:55.710Z,1.67
2022-10-25T09:43:27.551Z,1.80
2022-10-25T09:45:56.624Z,1.77
2022-10-25T09:48:50.461Z,2.17
2022-10-25T09:51:38.169Z,2.20
2022-10-25T09:54:14.310Z,2.07
2022-10-25T09:56:41.807Z,2.10
2022-10-25T09:59:12.685Z,2.37
2022-10-25T10:01:41.521Z,2.57
2022-10-25T10:04:21.415Z,1.87
2022-10-25T10:06:49.233Z,2.00
2022-10-25T10:09:17.351Z,1.50
2022-10-25T10:11:46.633Z,2.13
2022-10-25T10:14:36.714Z,1.80
2022-10-25T10:17:06.490Z,2.13
2022-10-25T10:19:34.048Z,1.87
2022-10-25T10:22:02.431Z,1.87
2022-10-25T10:24:31.760Z,2.23
2022-10-25T10:27:00.075Z,1.70
2022-10-25T10:29:57.292Z,2.27
2022-10-25T10:32:27.361Z,2.07
2022-10-25T10:34:55.598Z,1.97
2022-10-25T10:37:26.188Z,1.97
2022-10-25T10:40:01.176Z,2.30
2022-10-25T10:45:07.189Z,2.10
2022-10-25T10:47:57.688Z,2.00
2022-10-25T10:50:27.256Z,2.00
2022-10-25T10:52:58.259Z,2.63
2022-10-25T10:55:35.266Z,1.80
2022-10-25T10:58:08.632Z,2.13
2022-10-25T11:00:36.283Z,2.07
2022-10-25T11:03:03.934Z,2.03
2022-10-25T11:05:35.717Z,1.67
2022-10-25T11:08:05.985Z,1.70
2022-10-25T11:10:34.604Z,1.70
2022-10-25T11:13:07.908Z,1.77
2022-10-25T11:15:55.648Z,2.07
2022-10-25T11:18:32.328Z,1.37
2022-10-25T11:21:20.039Z,1.40
2022-10-25T11:23:55.453Z,1.40
2022-10-25T11:26:46.360Z,1.53
2022-10-25T11:29:13.792Z,1.43
2022-10-25T11:31:41.260Z,1.50
2022-10-25T11:34:09.939Z,1.43
2022-10-25T11:36:56.130Z,1.10
2022-10-25T11:39:35.871Z,1.53
2022-10-25T11:42:07.214Z,1.17
2022-10-25T11:44:53.528Z,1.30
2022-10-25T11:47:26.945Z,1.27
2022-10-25T11:49:57.528Z,0.90
2022-10-25T11:52:25.046Z,1.30
2022-10-25T11:55:20.166Z,1.30
2022-10-25T11:57:54.527Z,1.30
2022-10-25T12:00:23.678Z,1.50
2022-10-25T12:02:57.002Z,1.37
2022-10-25T12:05:38.129Z,1.53
2022-10-25T12:08:24.530Z,1.17
2022-10-25T12:10:58.115Z,1.53
2022-10-25T12:13:30.124Z,1.30
2022-10-25T12:15:58.049Z,1.53
2022-10-25T12:18:34.385Z,1.50
2022-10-25T12:21:02.357Z,1.67
2022-10-25T12:23:32.410Z,1.47
2022-10-25T12:26:02.704Z,1.50
2022-10-25T12:28:33.341Z,1.10
2022-10-25T12:31:02.525Z,1.47
2022-10-25T12:33:38.769Z,1.80
2022-10-25T12:36:08.030Z,1.40
2022-10-25T12:38:37.193Z,1.83
2022-10-25T12:41:10.369Z,1.30
2022-10-25T12:43:56.430Z,1.20
2022-10-25T12:46:43.634Z,1.57
2022-10-25T12:49:17.147Z,1.37
2022-10-25T12:52:07.691Z,1.80
2022-10-25T12:54:35.145Z,1.67
2022-10-25T12:57:08.888Z,1.60
2022-10-25T12:59:42.523Z,1.67
2022-10-25T13:02:36.402Z,1.90
2022-10-25T13:05:22.712Z,1.50
2022-10-25T13:07:51.387Z,1.40
2022-10-25T13:10:20.514Z,1.30
2022-10-25T13:13:04.823Z,1.43
2022-10-25T13:15:43.918Z,1.30
2022-10-25T13:18:26.160Z,2.33
2022-10-25T13:20:53.626Z,1.20
2022-10-25T13:23:39.654Z,1.10
2022-10-25T13:26:11.258Z,1.77
2022-10-25T13:28:44.982Z,1.30
2022-10-25T13:31:44.452Z,0.83
2022-10-25T13:34:14.963Z,1.47
2022-10-25T13:36:58.469Z,1.43
2022-10-25T13:39:45.480Z,1.40
2022-10-25T13:42:15.688Z,1.40
2022-10-25T13:44:54.480Z,1.50
2022-10-25T13:47:40.490Z,1.30
2022-10-25T13:50:13.031Z,1.40
2022-10-25T13:52:44.788Z,1.10
2022-10-25T13:55:16.076Z,0.97
2022-10-25T13:57:46.327Z,1.40
2022-10-25T14:00:32.861Z,1.27
2022-10-25T14:03:09.826Z,0.80
2022-10-25T14:05:55.548Z,1.13
2022-10-25T14:08:28.231Z,1.30
2022-10-25T14:10:55.897Z,0.80
2022-10-25T14:13:36.713Z,1.03
2022-10-25T14:16:21.697Z,1.37
2022-10-25T14:18:49.775Z,1.00
2022-10-25T14:21:17.315Z,0.93
2022-10-25T14:23:44.961Z,1.30
2022-10-25T14:26:16.553Z,1.30
2022-10-25T14:28:44.114Z,1.03
2022-10-25T14:31:21.730Z,1.10
2022-10-25T14:33:53.335Z,1.00
2022-10-25T14:36:31.081Z,1.17
2022-10-25T14:38:59.521Z,1.00
2022-10-25T14:41:34.265Z,1.07
2022-10-25T14:44:01.976Z,1.13
2022-10-25T14:46:30.412Z,1.30
2022-10-25T14:48:58.639Z,1.60
2022-10-25T14:51:26.103Z,1.17
2022-10-25T14:53:56.361Z,1.47
2022-10-25T14:56:26.528Z,1.30
2022-10-25T14:58:54.733Z,1.13
2022-10-25T15:01:22.950Z,1.30
2022-10-25T15:03:52.304Z,1.13
2022-10-25T15:06:21.457Z,1.23
2022-10-25T15:08:52.267Z,1.10
2022-10-25T15:11:22.489Z,1.47
2022-10-25T15:13:50.954Z,1.40
2022-10-25T15:16:27.274Z,1.27
2022-10-25T15:19:09.874Z,1.50
2022-10-25T15:21:41.460Z,1.00
2022-10-25T15:24:14.717Z,1.20
2022-10-25T15:26:58.919Z,1.60
2022-10-25T15:32:20.371Z,1.40
2022-10-25T15:34:51.864Z,1.20
2022-10-25T15:37:20.269Z,1.57
2022-10-25T15:39:48.516Z,1.33
2022-10-25T15:42:16.427Z,1.10
2022-10-25T15:44:44.295Z,2.00
2022-10-25T15:47:28.206Z,1.60
2022-10-25T15:49:55.718Z,1.20
2022-10-25T15:52:23.568Z,1.20
2022-10-25T15:54:51.199Z,1.10
2022-10-25T15:57:18.647Z,1.27
2022-10-25T15:59:46.167Z,1.37
2022-10-25T16:02:21.484Z,1.10
2022-10-25T16:04:49.127Z,1.20
2022-10-25T16:07:16.605Z,1.03
2022-10-25T16:09:44.205Z,1.20
2022-10-25T16:12:17.632Z,1.50
2022-10-25T16:14:45.270Z,1.10
2022-10-25T16:17:14.012Z,1.30
2022-10-25T16:19:41.803Z,1.20
2022-10-25T16:22:09.258Z,1.30
2022-10-25T16:24:36.698Z,1.47
2022-10-25T16:27:04.182Z,1.17
2022-10-25T16:29:31.752Z,1.30
2022-10-25T16:31:59.218Z,1.60
2022-10-25T16:34:26.654Z,1.70
2022-10-25T16:36:54.148Z,2.53
2022-10-25T16:39:21.611Z,1.70
2022-10-25T16:41:49.087Z,1.50
2022-10-25T16:44:18.179Z,1.63
2022-10-25T16:46:45.873Z,1.33
2022-10-25T16:49:13.333Z,1.10
2022-10-25T16:51:41.032Z,1.87
2022-10-25T16:54:08.868Z,1.60
2022-10-25T16:56:36.319Z,1.50
2022-10-25T16:59:04.127Z,1.67
2022-10-25T17:01:33.238Z,1.80
2022-10-25T17:04:01.288Z,1.77
2022-10-25T17:06:46.200Z,1.90
2022-10-25T17:09:13.735Z,1.80
2022-10-25T17:11:41.185Z,1.60
2022-10-25T17:14:09.072Z,2.20
2022-10-25T17:16:36.760Z,1.97
2022-10-25T17:19:04.307Z,1.87
2022-10-25T17:21:31.794Z,1.80
2022-10-25T17:23:59.528Z,1.80
2022-10-25T17:26:26.976Z,1.97
2022-10-25T17:28:54.495Z,2.43
2022-10-25T17:31:22.049Z,2.83
2022-10-25T17:33:49.619Z,3.37
2022-10-25T17:36:18.519Z,2.77
2022-10-25T17:38:46.258Z,2.90
2022-10-25T17:41:14.053Z,2.50
2022-10-25T17:43:41.959Z,2.60
2022-10-25T17:46:35.606Z,2.37
2022-10-25T17:49:03.612Z,3.97
2022-10-25T17:51:32.241Z,3.30
2022-10-25T17:53:59.892Z,2.80
2022-10-25T17:56:28.151Z,3.13
2022-10-25T17:58:56.061Z,3.60
2022-10-25T18:01:27.291Z,4.23
2022-10-25T18:03:55.283Z,5.43
2022-10-25T18:06:23.966Z,4.40
2022-10-25T18:08:52.639Z,3.13
2022-10-25T18:11:20.909Z,2.87
2022-10-25T18:13:48.598Z,3.40
2022-10-25T18:16:16.068Z,3.63
2022-10-25T18:18:43.553Z,2.70
2022-10-25T18:21:12.397Z,2.60
2022-10-25T18:23:40.481Z,3.10
2022-10-25T18:26:08.661Z,3.20
2022-10-25T18:28:36.628Z,4.03
2022-10-25T18:31:13.735Z,3.30
2022-10-25T18:33:42.385Z,4.40
2022-10-25T18:36:17.594Z,5.07
2022-10-25T18:38:51.810Z,3.67
2022-10-25T18:41:20.901Z,3.53
2022-10-25T18:43:48.454Z,3.20
2022-10-25T18:46:16.003Z,3.33
2022-10-25T18:48:43.544Z,3.50
2022-10-25T18:51:11.953Z,3.13
2022-10-25T18:53:39.806Z,4.77
2022-10-25T18:56:11.106Z,5.40
2022-10-25T18:58:38.848Z,5.90
2022-10-25T19:01:07.331Z,5.50
2022-10-25T19:03:34.883Z,6.20
2022-10-25T19:06:02.578Z,5.17
2022-10-25T19:08:30.093Z,4.87
2022-10-25T19:10:57.629Z,4.40
2022-10-25T19:13:25.146Z,4.87
2022-10-25T19:15:52.682Z,4.37
2022-10-25T19:18:20.153Z,4.33
2022-10-25T19:20:47.661Z,4.60
2022-10-25T19:23:15.138Z,4.90
2022-10-25T19:25:42.667Z,6.80
2022-10-25T19:28:10.351Z,6.33
2022-10-25T19:30:38.833Z,4.27
2022-10-25T19:33:06.650Z,4.93
2022-10-25T19:35:34.158Z,4.83
2022-10-25T19:38:01.716Z,4.40
2022-10-25T19:40:29.345Z,3.70
2022-10-25T19:42:56.849Z,3.80
2022-10-25T19:45:24.396Z,3.20
2022-10-25T19:47:51.907Z,3.33
2022-10-25T19:50:19.567Z,3.57
2022-10-25T19:52:47.083Z,3.63
2022-10-25T19:55:14.637Z,3.40
2022-10-25T19:57:43.270Z,3.20
2022-10-25T20:00:13.494Z,3.23
2022-10-25T20:02:41.368Z,3.13
2022-10-25T20:05:09.051Z,3.13
2022-10-25T20:07:36.566Z,3.10
2022-10-25T20:10:04.054Z,3.40
2022-10-25T20:12:31.581Z,4.00
2022-10-25T20:14:59.106Z,3.60
2022-10-25T20:17:26.720Z,3.47
2022-10-25T20:19:54.237Z,4.20
2022-10-25T20:22:23.667Z,4.30
2022-10-25T20:24:51.141Z,4.00
2022-10-25T20:27:18.566Z,3.63
2022-10-25T20:29:46.044Z,3.27
2022-10-25T20:32:13.545Z,3.70
2022-10-25T20:34:41.009Z,4.53
2022-10-25T20:37:08.519Z,3.87
2022-10-25T20:39:35.980Z,4.33
2022-10-25T20:42:03.561Z,4.00
2022-10-25T20:44:30.986Z,4.00
2022-10-25T20:46:58.510Z,4.60
2022-10-25T20:49:25.993Z,4.60
2022-10-25T20:51:53.489Z,4.10
2022-10-25T20:54:20.932Z,4.87
2022-10-25T20:56:48.418Z,4.67
2022-10-25T20:59:15.845Z,4.70
2022-10-25T21:01:43.395Z,5.00
2022-10-25T21:04:10.953Z,5.13
2022-10-25T21:06:38.537Z,5.20
2022-10-25T21:09:06.003Z,5.70
2022-10-25T21:11:33.452Z,4.70
2022-10-25T21:14:00.936Z,5.13
2022-10-25T21:16:28.369Z,5.17
2022-10-25T21:18:55.811Z,5.00
2022-10-25T21:21:23.830Z,4.17
2022-10-25T21:23:54.950Z,4.70
2022-10-25T21:26:22.484Z,5.13
2022-10-25T21:28:49.926Z,4.87
2022-10-25T21:31:17.404Z,5.50
2022-10-25T21:33:50.148Z,5.40
2022-10-25T21:36:19.453Z,5.93
2022-10-25T21:38:46.873Z,5.23
2022-10-25T21:41:18.770Z,4.97
2022-10-25T21:43:47.467Z,5.10
2022-10-25T21:46:15.588Z,5.73
2022-10-25T21:48:43.244Z,5.07
2022-10-25T21:51:10.749Z,5.10
2022-10-25T21:53:38.253Z,5.30
2022-10-25T21:56:09.082Z,4.43
2022-10-25T21:58:36.980Z,4.70
2022-10-25T22:01:07.196Z,5.03
2022-10-25T22:03:34.828Z,4.87
2022-10-25T22:06:02.237Z,5.33
2022-10-25T22:08:29.642Z,4.97
2022-10-25T22:11:00.925Z,5.03
2022-10-25T22:13:28.762Z,4.70
2022-10-25T22:16:00.387Z,4.70
2022-10-25T22:18:28.043Z,5.43
2022-10-25T22:21:00.018Z,4.70
2022-10-25T22:23:29.197Z,4.50
2022-10-25T22:25:59.912Z,5.07
2022-10-25T22:28:27.439Z,4.90
2022-10-25T22:31:01.858Z,5.17
2022-10-25T22:33:30.034Z,5.07
2022-10-25T22:36:02.219Z,5.03
2022-10-25T22:38:29.711Z,4.93
2022-10-25T22:40:58.080Z,4.77
2022-10-25T22:43:25.583Z,4.80
2022-10-25T22:45:53.361Z,5.10
2022-10-25T22:48:20.841Z,5.27
2022-10-25T22:50:52.280Z,5.27
2022-10-25T22:53:20.314Z,5.50
2022-10-25T22:55:58.022Z,5.87
2022-10-25T22:58:26.438Z,6.00
2022-10-25T23:03:37.994Z,5.27
2022-10-25T23:06:06.089Z,5.87
2022-10-25T23:08:33.741Z,5.93
2022-10-25T23:11:02.305Z,5.90
2022-10-25T23:13:30.387Z,5.67
2022-10-25T23:15:57.786Z,6.50
2022-10-25T23:18:25.447Z,5.53
2022-10-25T23:20:53.783Z,5.17
2022-10-25T23:23:21.398Z,5.70
2022-10-25T23:25:48.837Z,4.77
2022-10-25T23:28:16.461Z,4.93
2022-10-25T23:30:44.151Z,4.73
2022-10-25T23:33:12.550Z,5.07
2022-10-25T23:35:41.073Z,4.10
2022-10-25T23:38:11.989Z,4.80
2022-10-25T23:40:39.734Z,4.37
2022-10-25T23:43:07.198Z,4.07
2022-10-25T23:45:34.704Z,3.67
2022-10-25T23:48:02.173Z,3.20
2022-10-25T23:50:29.613Z,3.50
2022-10-25T23:52:57.027Z,3.47
2022-10-25T23:55:24.548Z,3.50
2022-10-25T23:57:56.676Z,3.83
